Time;durP1;ratioP1;P1;durP2;ratioP2;P2;SDS_P1;SDS_P2;PMS_P1;PMS_P2;Temp;Humidity;BMP_temperature;BMP_pressure;BME280_temperature;BME280_humidity;BME280_pressure;Samples;Min_cycle;Max_cycle;Signal;HPM_P1;HPM_P2
2022/03/12 00:01:58;;;;;;;8.85;5.90;;;7.70;46.60;;;;;;6122599;23;95652;-71
2022/03/12 00:04:26;;;;;;;10.48;5.72;;;7.60;46.10;;;;;;6123199;23;93122;-71
2022/03/12 00:06:53;;;;;;;8.70;6.18;;;7.60;47.10;;;;;;6124627;22;92793;-70
2022/03/12 00:09:21;;;;;;;10.02;6.15;;;7.60;46.10;;;;;;6124882;22;92395;-70
2022/03/12 00:11:55;;;;;;;10.40;6.72;;;7.60;46.70;;;;;;6125109;22;100727;-70
2022/03/12 00:14:23;;;;;;;8.15;6.55;;;7.60;46.60;;;;;;6126519;22;92892;-70
2022/03/12 00:16:54;;;;;;;10.68;6.10;;;7.60;46.50;;;;;;6125971;23;92305;-70
2022/03/12 00:19:22;;;;;;;7.97;5.95;;;7.50;46.60;;;;;;6126215;23;92755;-70
2022/03/12 00:21:49;;;;;;;8.43;6.30;;;7.50;46.90;;;;;;6124696;22;95417;-75
2022/03/12 00:24:17;;;;;;;12.35;6.30;;;7.50;47.40;;;;;;6126297;23;95578;-75
2022/03/12 00:26:45;;;;;;;12.73;6.78;;;7.50;47.20;;;;;;6126707;22;92529;-75
2022/03/12 00:29:14;;;;;;;11.25;5.72;;;7.50;47.20;;;;;;6099833;23;92458;-75
2022/03/12 00:31:45;;;;;;;8.60;6.53;;;7.50;47.10;;;;;;6125210;23;93269;-75
2022/03/12 00:34:13;;;;;;;6.50;5.10;;;7.50;47.50;;;;;;6125201;23;92957;-75
2022/03/12 00:36:41;;;;;;;7.30;6.22;;;7.40;47.90;;;;;;6124727;23;100035;-75
2022/03/12 00:39:09;;;;;;;12.48;6.95;;;7.30;47.70;;;;;;6127034;22;91858;-75
2022/03/12 00:41:42;;;;;;;8.55;6.95;;;7.40;47.50;;;;;;6124639;23;95791;-75
2022/03/12 00:44:12;;;;;;;11.32;6.85;;;7.30;47.70;;;;;;6126344;22;92864;-75
2022/03/12 00:46:39;;;;;;;7.47;6.35;;;7.30;47.90;;;;;;6123615;23;94895;-75
2022/03/12 00:49:06;;;;;;;8.95;6.95;;;7.20;49.10;;;;;;6149787;22;92519;-75
2022/03/12 00:51:33;;;;;;;10.20;6.78;;;7.20;48.30;;;;;;6124917;23;93063;-75
2022/03/12 00:54:00;;;;;;;7.32;6.25;;;7.20;48.60;;;;;;6124359;23;94514;-75
2022/03/12 00:56:27;;;;;;;13.00;6.82;;;7.10;49.00;;;;;;6125262;22;92411;-70
2022/03/12 00:58:54;;;;;;;8.85;6.68;;;7.10;48.60;;;;;;6124528;23;92855;-70
2022/03/12 01:01:22;;;;;;;8.88;6.53;;;7.10;48.70;;;;;;6125724;22;93055;-70
2022/03/12 01:03:51;;;;;;;8.48;6.57;;;7.10;49.10;;;;;;6126436;23;92064;-70
2022/03/12 01:06:18;;;;;;;11.75;7.47;;;7.10;49.30;;;;;;6124257;23;92455;-70
2022/03/12 01:08:47;;;;;;;10.40;6.63;;;7.10;48.70;;;;;;6124023;23;92512;-70
2022/03/12 01:11:14;;;;;;;10.30;6.45;;;7.00;49.20;;;;;;6124159;22;95664;-75
2022/03/12 01:13:41;;;;;;;12.10;6.30;;;7.00;49.50;;;;;;6124359;23;97778;-75
2022/03/12 01:16:08;;;;;;;7.80;6.25;;;7.00;49.30;;;;;;6126200;22;92371;-75
2022/03/12 01:18:38;;;;;;;7.80;6.47;;;7.00;49.30;;;;;;6100035;23;92762;-75
2022/03/12 01:21:11;;;;;;;9.48;6.15;;;7.00;49.10;;;;;;6126151;22;96681;-75
2022/03/12 01:23:39;;;;;;;9.48;6.78;;;7.00;48.70;;;;;;6124784;23;95691;-75
2022/03/12 01:26:06;;;;;;;10.40;7.80;;;7.00;49.10;;;;;;6125870;23;98134;-75
2022/03/12 01:28:33;;;;;;;14.00;7.88;;;7.00;48.90;;;;;;6125414;23;91685;-75
2022/03/12 01:31:00;;;;;;;6.28;5.68;;;7.00;49.30;;;;;;6125860;22;95751;-75
2022/03/12 01:33:28;;;;;;;6.85;5.85;;;6.90;49.50;;;;;;6124830;23;92723;-75
2022/03/12 01:35:57;;;;;;;8.52;7.13;;;6.90;49.10;;;;;;6125031;22;94740;-75
2022/03/12 01:38:34;;;;;;;7.93;5.93;;;7.00;49.00;;;;;;6126059;22;92429;-75
2022/03/12 01:41:02;;;;;;;7.95;6.38;;;7.00;49.60;;;;;;6099804;23;95605;-75
2022/03/12 01:43:31;;;;;;;10.23;6.85;;;7.00;49.80;;;;;;6123318;23;95445;-70
2022/03/12 01:46:01;;;;;;;8.73;5.85;;;7.00;50.20;;;;;;6099281;23;92468;-70
2022/03/12 01:48:29;;;;;;;9.70;7.07;;;7.00;49.80;;;;;;6125606;22;92409;-70
2022/03/12 01:50:57;;;;;;;9.55;6.93;;;7.00;50.20;;;;;;6099426;23;92366;-70
2022/03/12 01:53:28;;;;;;;7.32;5.75;;;6.90;49.80;;;;;;6123809;23;95664;-70
2022/03/12 01:55:56;;;;;;;8.50;6.72;;;7.00;49.50;;;;;;6126279;22;92303;-75
2022/03/12 01:58:24;;;;;;;8.43;6.47;;;6.90;49.60;;;;;;6099845;23;93401;-75
2022/03/12 02:00:53;;;;;;;11.30;6.15;;;6.90;49.20;;;;;;6124471;23;95674;-75
2022/03/12 02:03:22;;;;;;;10.45;7.35;;;6.90;49.40;;;;;;6123893;23;98057;-75
2022/03/12 02:05:50;;;;;;;8.65;6.35;;;6.90;49.90;;;;;;6126382;22;92368;-75
2022/03/12 02:08:18;;;;;;;9.48;7.43;;;6.90;49.60;;;;;;6125827;22;92861;-75
2022/03/12 02:10:47;;;;;;;6.60;5.57;;;6.90;49.70;;;;;;6126187;22;92347;-75
2022/03/12 02:13:14;;;;;;;9.77;6.68;;;6.90;49.60;;;;;;6125827;22;93063;-75
2022/03/12 02:15:41;;;;;;;11.18;7.40;;;6.90;49.80;;;;;;6124876;23;92495;-75
2022/03/12 02:18:09;;;;;;;9.60;7.22;;;6.90;49.40;;;;;;6125214;23;92263;-75
2022/03/12 02:20:38;;;;;;;11.10;6.78;;;6.90;49.70;;;;;;6125804;22;92311;-70
2022/03/12 02:23:09;;;;;;;9.98;6.25;;;6.90;49.90;;;;;;6125432;23;92881;-70
2022/03/12 02:25:36;;;;;;;8.55;7.60;;;6.90;49.20;;;;;;6124341;22;95291;-70
2022/03/12 02:28:17;;;;;;;8.70;6.72;;;6.90;49.80;;;;;;6123717;23;92532;-70
2022/03/12 02:30:51;;;;;;;9.98;7.88;;;6.90;49.00;;;;;;6123811;23;95840;-70
2022/03/12 02:33:28;;;;;;;7.63;6.80;;;6.90;48.80;;;;;;6122979;23;99062;-70
2022/03/12 02:35:56;;;;;;;9.07;6.75;;;6.90;49.20;;;;;;6125660;22;92324;-70
2022/03/12 02:38:28;;;;;;;8.15;6.40;;;6.90;49.10;;;;;;6123732;23;92501;-70
2022/03/12 02:40:56;;;;;;;9.35;6.80;;;6.90;49.30;;;;;;6123837;23;95582;-70
2022/03/12 02:43:26;;;;;;;8.57;6.47;;;6.90;49.40;;;;;;6098852;23;98793;-70
2022/03/12 02:45:57;;;;;;;11.23;6.20;;;6.90;49.70;;;;;;6125596;22;92286;-70
2022/03/12 02:48:25;;;;;;;9.40;6.38;;;6.90;49.90;;;;;;6125147;23;92606;-71
2022/03/12 02:50:53;;;;;;;6.28;5.35;;;6.80;49.70;;;;;;6121874;23;95567;-70
2022/03/12 02:53:21;;;;;;;10.88;6.18;;;6.80;50.00;;;;;;6124475;22;95253;-67
2022/03/12 02:55:48;;;;;;;8.27;5.93;;;6.80;49.50;;;;;;6125486;22;92458;-68
2022/03/12 02:58:17;;;;;;;8.93;6.78;;;6.90;49.70;;;;;;6098694;23;92433;-67
2022/03/12 03:00:44;;;;;;;8.95;6.43;;;6.80;49.70;;;;;;6125186;22;93234;-68
2022/03/12 03:03:11;;;;;;;9.50;6.20;;;6.80;49.20;;;;;;6125200;22;93021;-68
2022/03/12 03:05:47;;;;;;;7.93;6.28;;;6.90;50.00;;;;;;6124745;22;102810;-72
2022/03/12 03:08:20;;;;;;;7.10;6.40;;;6.90;49.20;;;;;;6126094;22;91620;-72
2022/03/12 03:10:51;;;;;;;10.65;6.28;;;6.90;49.20;;;;;;6125239;22;94623;-68
2022/03/12 03:13:20;;;;;;;10.82;6.63;;;6.90;49.60;;;;;;6124838;23;92808;-68
2022/03/12 03:15:51;;;;;;;7.65;6.30;;;6.90;49.80;;;;;;6122387;23;95286;-68
2022/03/12 03:18:21;;;;;;;9.13;6.82;;;6.90;49.10;;;;;;6125052;22;92734;-68
2022/03/12 03:20:50;;;;;;;8.80;6.50;;;6.90;49.40;;;;;;6125250;22;93112;-68
2022/03/12 03:23:18;;;;;;;9.85;6.45;;;6.90;49.20;;;;;;6124763;22;92921;-68
2022/03/12 03:25:47;;;;;;;7.82;5.85;;;6.90;49.30;;;;;;6125283;22;92272;-68
2022/03/12 03:28:16;;;;;;;8.18;6.35;;;6.90;49.30;;;;;;6124845;22;92409;-68
2022/03/12 03:30:43;;;;;;;8.25;6.25;;;6.90;49.30;;;;;;6123203;23;95631;-67
2022/03/12 03:33:16;;;;;;;6.97;5.55;;;6.90;49.30;;;;;;6123862;23;93087;-68
2022/03/12 03:35:43;;;;;;;7.95;5.80;;;6.90;49.40;;;;;;6125267;22;92309;-67
2022/03/12 03:38:12;;;;;;;7.45;4.95;;;6.90;49.80;;;;;;6125252;22;92673;-68
2022/03/12 03:40:41;;;;;;;10.75;6.63;;;6.80;50.00;;;;;;6123089;23;95534;-68
2022/03/12 03:43:15;;;;;;;7.70;5.75;;;6.90;49.60;;;;;;6122845;23;98022;-68
2022/03/12 03:45:44;;;;;;;10.80;6.13;;;6.90;50.00;;;;;;6124001;23;92407;-68
2022/03/12 03:48:15;;;;;;;7.93;5.60;;;6.80;49.60;;;;;;6124725;23;92407;-72
2022/03/12 03:50:43;;;;;;;12.30;6.55;;;6.80;50.30;;;;;;6125105;23;95455;-72
2022/03/12 03:53:14;;;;;;;7.53;5.97;;;6.80;50.20;;;;;;6126577;22;93099;-72
2022/03/12 03:55:42;;;;;;;11.10;6.82;;;6.80;50.50;;;;;;6125154;23;92430;-72
2022/03/12 03:58:12;;;;;;;8.70;7.20;;;6.80;49.50;;;;;;6127001;22;91758;-72
2022/03/12 04:00:40;;;;;;;8.90;6.57;;;6.80;49.40;;;;;;6126397;22;93207;-72
2022/03/12 04:03:07;;;;;;;9.70;6.30;;;6.80;50.20;;;;;;6100198;23;95604;-72
2022/03/12 04:05:36;;;;;;;7.78;6.00;;;6.80;50.20;;;;;;6123503;23;95337;-72
2022/03/12 04:08:06;;;;;;;8.75;6.65;;;6.80;50.00;;;;;;6099892;23;95983;-72
2022/03/12 04:10:34;;;;;;;8.75;5.22;;;6.70;49.80;;;;;;6126431;22;93198;-72
2022/03/12 04:13:09;;;;;;;7.10;5.45;;;6.70;50.10;;;;;;6126593;22;95144;-72
2022/03/12 04:15:37;;;;;;;10.57;6.35;;;6.70;50.20;;;;;;6125227;23;92416;-72
2022/03/12 04:18:05;;;;;;;8.00;6.68;;;6.70;50.70;;;;;;6124649;23;93953;-72
2022/03/12 04:20:32;;;;;;;12.57;6.57;;;6.70;50.60;;;;;;6124654;23;95905;-73
2022/03/12 04:23:00;;;;;;;8.13;6.30;;;6.70;50.20;;;;;;6125065;23;95663;-72
2022/03/12 04:25:31;;;;;;;9.10;6.10;;;6.60;50.20;;;;;;6124964;23;92807;-72
2022/03/12 04:27:58;;;;;;;9.75;6.13;;;6.60;50.20;;;;;;6126684;22;92322;-72
2022/03/12 04:30:28;;;;;;;6.78;5.22;;;6.50;50.40;;;;;;6098488;23;96613;-72
2022/03/12 04:32:55;;;;;;;8.82;6.55;;;6.40;50.90;;;;;;6126355;22;95234;-72
2022/03/12 04:35:24;;;;;;;8.23;5.90;;;6.40;50.70;;;;;;6124751;23;92332;-72
2022/03/12 04:37:52;;;;;;;6.88;5.88;;;6.40;50.70;;;;;;6124884;23;92417;-73
2022/03/12 04:40:25;;;;;;;8.23;6.07;;;6.40;51.50;;;;;;6100079;23;95885;-73
2022/03/12 04:42:53;;;;;;;8.45;5.78;;;6.40;51.20;;;;;;6125955;23;93087;-68
2022/03/12 04:45:23;;;;;;;6.90;5.93;;;6.30;50.90;;;;;;6126120;23;92483;-68
2022/03/12 04:47:51;;;;;;;10.25;6.32;;;6.30;51.30;;;;;;6126557;23;91866;-68
2022/03/12 04:50:20;;;;;;;7.82;6.35;;;6.30;50.80;;;;;;6124208;23;92333;-67
2022/03/12 04:52:50;;;;;;;7.15;5.70;;;6.20;52.20;;;;;;6125637;22;93148;-68
2022/03/12 04:55:22;;;;;;;8.10;6.18;;;6.20;51.30;;;;;;6122627;23;94758;-67
2022/03/12 04:57:50;;;;;;;23.88;6.22;;;6.20;50.90;;;;;;6124457;23;92399;-68
2022/03/12 05:00:25;;;;;;;6.95;5.80;;;6.20;51.00;;;;;;6124063;22;93302;-68
2022/03/12 05:03:12;;;;;;;8.13;5.80;;;6.20;50.90;;;;;;6122498;23;95606;-68
2022/03/12 05:05:41;;;;;;;7.50;6.00;;;6.10;51.80;;;;;;6122153;23;92326;-68
2022/03/12 05:08:10;;;;;;;8.27;6.20;;;6.10;50.90;;;;;;6122193;23;92460;-68
2022/03/12 05:10:37;;;;;;;7.22;5.95;;;6.00;51.20;;;;;;6123730;22;93308;-68
2022/03/12 05:13:04;;;;;;;8.20;6.00;;;6.00;51.00;;;;;;6124013;22;103639;-68
2022/03/12 05:15:38;;;;;;;8.15;6.03;;;6.00;50.80;;;;;;6122459;23;92473;-67
2022/03/12 05:18:13;;;;;;;7.18;6.30;;;6.00;51.10;;;;;;6122775;23;92568;-68
2022/03/12 05:20:48;;;;;;;10.18;6.57;;;6.00;51.00;;;;;;6122060;23;95738;-68
2022/03/12 05:23:18;;;;;;;12.65;6.28;;;5.90;51.30;;;;;;6123852;22;95211;-68
2022/03/12 05:25:47;;;;;;;7.13;5.95;;;5.80;51.40;;;;;;6123806;22;92304;-67
2022/03/12 05:28:25;;;;;;;7.95;5.60;;;5.80;51.40;;;;;;6124025;22;92384;-67
2022/03/12 05:30:56;;;;;;;7.75;6.05;;;5.80;51.30;;;;;;6123617;23;92440;-68
2022/03/12 05:33:25;;;;;;;7.45;5.93;;;5.80;51.30;;;;;;6097974;23;98105;-70
2022/03/12 05:35:54;;;;;;;7.72;6.47;;;5.70;51.20;;;;;;6124101;22;92395;-75
2022/03/12 05:38:23;;;;;;;8.65;5.22;;;5.80;51.20;;;;;;6125295;22;91699;-75
2022/03/12 05:40:51;;;;;;;7.50;5.95;;;5.70;52.30;;;;;;6097577;23;95834;-75
2022/03/12 05:43:18;;;;;;;7.82;5.68;;;5.70;51.40;;;;;;6098167;23;94235;-75
2022/03/12 05:45:48;;;;;;;6.97;5.97;;;5.70;51.80;;;;;;6121419;23;94794;-75
2022/03/12 05:48:17;;;;;;;9.60;6.03;;;5.70;51.90;;;;;;6124479;23;92365;-75
2022/03/12 05:50:50;;;;;;;7.65;5.75;;;5.70;51.50;;;;;;6124097;23;93141;-75
2022/03/12 05:53:19;;;;;;;7.65;5.75;;;5.70;51.50;;;;;;6097964;23;95335;-70
2022/03/12 05:55:47;;;;;;;5.93;5.32;;;5.70;52.10;;;;;;6122277;23;92902;-70
2022/03/12 05:58:17;;;;;;;6.90;5.35;;;5.70;52.60;;;;;;6071565;23;1198454;-70
2022/03/12 06:00:47;;;;;;;8.52;6.22;;;5.70;52.40;;;;;;6125204;22;93139;-70
2022/03/12 06:03:14;;;;;;;7.60;6.32;;;5.70;52.20;;;;;;6125777;23;92952;-70
2022/03/12 06:05:43;;;;;;;9.48;6.00;;;5.70;51.80;;;;;;6125193;22;92427;-70
2022/03/12 06:08:22;;;;;;;10.38;6.28;;;5.70;51.90;;;;;;6125212;23;92394;-70
2022/03/12 06:10:52;;;;;;;7.32;6.07;;;5.70;51.90;;;;;;6099652;23;95557;-70
2022/03/12 06:13:22;;;;;;;8.18;5.90;;;5.70;52.20;;;;;;6125374;22;95342;-70
2022/03/12 06:16:00;;;;;;;11.13;6.45;;;5.70;52.10;;;;;;6123471;23;92418;-70
2022/03/12 06:18:33;;;;;;;8.02;6.38;;;5.70;52.40;;;;;;6123971;23;92496;-70
2022/03/12 06:21:01;;;;;;;8.68;5.72;;;5.70;52.30;;;;;;6125177;22;93187;-70
2022/03/12 06:23:28;;;;;;;10.05;6.20;;;5.80;52.10;;;;;;6125444;22;92805;-70
2022/03/12 06:25:56;;;;;;;8.68;6.13;;;5.80;52.00;;;;;;6098935;23;92814;-70
2022/03/12 06:28:23;;;;;;;8.48;6.20;;;5.90;51.70;;;;;;6124489;23;91742;-70
2022/03/12 06:30:54;;;;;;;7.05;5.53;;;6.00;51.80;;;;;;6123609;23;93167;-70
2022/03/12 06:33:22;;;;;;;8.25;5.70;;;6.10;51.70;;;;;;6123933;23;93030;-70
2022/03/12 06:35:51;;;;;;;10.20;6.32;;;6.20;51.20;;;;;;6122371;23;94813;-70
2022/03/12 06:38:18;;;;;;;13.60;8.63;;;6.30;51.90;;;;;;6124067;23;93412;-70
2022/03/12 06:40:45;;;;;;;8.98;6.38;;;6.40;51.80;;;;;;6124907;22;100493;-70
2022/03/12 06:43:18;;;;;;;10.25;7.20;;;6.40;51.60;;;;;;6123764;23;92861;-70
2022/03/12 06:45:49;;;;;;;9.45;6.03;;;6.40;50.80;;;;;;6125311;22;92280;-70
2022/03/12 06:48:17;;;;;;;9.48;6.60;;;6.50;51.00;;;;;;6125573;23;92366;-70
2022/03/12 06:50:45;;;;;;;11.77;6.60;;;6.50;50.40;;;;;;6124888;22;93185;-70
2022/03/12 06:53:13;;;;;;;11.77;6.90;;;6.50;50.70;;;;;;6125635;22;92946;-70
2022/03/12 06:55:41;;;;;;;10.15;6.30;;;6.60;50.50;;;;;;6125707;22;92712;-70
2022/03/12 06:58:11;;;;;;;7.68;5.65;;;6.60;50.00;;;;;;6123624;23;92831;-70
2022/03/12 07:00:38;;;;;;;10.18;6.35;;;6.60;50.10;;;;;;6123675;22;95631;-70
2022/03/12 07:03:05;;;;;;;10.45;6.38;;;6.70;50.40;;;;;;6122880;23;95471;-70
2022/03/12 07:05:32;;;;;;;8.73;6.05;;;6.70;50.40;;;;;;6099082;23;92524;-70
2022/03/12 07:07:59;;;;;;;10.10;5.35;;;6.80;50.00;;;;;;6098755;23;92505;-70
2022/03/12 07:10:26;;;;;;;8.98;5.75;;;6.80;50.30;;;;;;6074502;23;95949;-75
2022/03/12 07:12:53;;;;;;;10.15;6.50;;;6.80;50.60;;;;;;6123487;23;99011;-75
2022/03/12 07:15:21;;;;;;;9.30;6.53;;;6.90;49.50;;;;;;6125997;22;92403;-75
2022/03/12 07:17:49;;;;;;;10.85;6.65;;;7.00;49.70;;;;;;6099664;23;91725;-75
2022/03/12 07:20:17;;;;;;;7.93;6.05;;;7.00;49.70;;;;;;6125531;22;93101;-75
2022/03/12 07:22:45;;;;;;;7.82;6.15;;;7.10;49.60;;;;;;6125359;22;92901;-75
2022/03/12 07:25:14;;;;;;;10.13;6.50;;;7.20;49.70;;;;;;6098133;23;94764;-75
2022/03/12 07:27:42;;;;;;;8.20;5.88;;;7.30;50.30;;;;;;6124541;23;92344;-75
2022/03/12 07:30:12;;;;;;;8.93;6.25;;;7.40;49.50;;;;;;6099412;23;92883;-75
2022/03/12 07:32:42;;;;;;;8.93;6.68;;;7.50;49.90;;;;;;6125416;22;92949;-75
2022/03/12 07:35:12;;;;;;;8.05;6.20;;;7.60;48.80;;;;;;6125925;22;92239;-75
2022/03/12 07:37:40;;;;;;;7.95;5.63;;;7.70;48.60;;;;;;6099635;23;92444;-75
2022/03/12 07:40:09;;;;;;;9.52;6.20;;;7.80;48.40;;;;;;6123665;23;95884;-75
2022/03/12 07:42:37;;;;;;;10.85;7.00;;;8.00;47.80;;;;;;6124094;23;95467;-75
2022/03/12 07:45:09;;;;;;;10.27;6.68;;;8.20;47.20;;;;;;6124154;23;92444;-75
2022/03/12 07:47:36;;;;;;;8.50;5.97;;;8.20;47.10;;;;;;6125698;22;92329;-76
2022/03/12 07:50:06;;;;;;;6.00;5.20;;;8.30;46.80;;;;;;6121912;23;98382;-76
2022/03/12 07:52:34;;;;;;;6.97;6.22;;;8.20;45.90;;;;;;6123650;23;97809;-75
2022/03/12 07:55:02;;;;;;;8.55;6.35;;;8.30;46.50;;;;;;6124543;23;92639;-75
2022/03/12 07:57:29;;;;;;;9.75;6.15;;;8.30;46.80;;;;;;6125120;23;92444;-75
2022/03/12 07:59:58;;;;;;;9.63;7.80;;;8.30;47.20;;;;;;6125184;22;92760;-75
2022/03/12 08:02:25;;;;;;;7.38;6.65;;;8.40;47.60;;;;;;6125545;22;92913;-75
2022/03/12 08:04:52;;;;;;;11.23;10.13;;;8.40;46.60;;;;;;6125676;22;92387;-75
2022/03/12 08:07:20;;;;;;;10.60;9.80;;;8.70;46.70;;;;;;6125258;22;91675;-75
2022/03/12 08:09:47;;;;;;;12.02;11.07;;;9.20;46.20;;;;;;6125295;23;93247;-75
2022/03/12 08:12:15;;;;;;;11.95;10.95;;;9.80;45.10;;;;;;6123245;23;92740;-75
2022/03/12 08:14:43;;;;;;;13.55;12.57;;;10.30;43.30;;;;;;6121548;23;94769;-75
2022/03/12 08:17:10;;;;;;;13.50;12.27;;;10.80;42.30;;;;;;6123008;23;92854;-71
2022/03/12 08:19:38;;;;;;;10.85;9.70;;;11.40;40.80;;;;;;6123800;22;93106;-71
2022/03/12 08:22:05;;;;;;;11.30;8.95;;;11.70;40.00;;;;;;6098027;23;95636;-71
2022/03/12 08:24:32;;;;;;;9.70;8.77;;;12.00;38.80;;;;;;6098278;23;92878;-71
2022/03/12 08:26:59;;;;;;;9.00;8.15;;;12.00;39.70;;;;;;6124287;23;92470;-71
2022/03/12 08:29:27;;;;;;;9.43;7.78;;;12.10;41.20;;;;;;6124272;22;93076;-68
2022/03/12 08:31:55;;;;;;;9.25;7.65;;;12.20;40.40;;;;;;6122674;23;107270;-69
2022/03/12 08:34:22;;;;;;;8.68;7.68;;;12.20;40.00;;;;;;6124560;23;92502;-69
2022/03/12 08:36:49;;;;;;;9.75;7.57;;;12.00;40.50;;;;;;6124548;23;92481;-69
2022/03/12 08:39:16;;;;;;;7.75;6.30;;;12.00;40.90;;;;;;6122455;23;95844;-68
2022/03/12 08:41:44;;;;;;;10.15;7.88;;;12.00;41.70;;;;;;6125769;22;95263;-68
2022/03/12 08:44:12;;;;;;;9.45;7.68;;;11.90;42.20;;;;;;6124205;23;92483;-68
2022/03/12 08:46:42;;;;;;;7.60;6.57;;;11.90;41.90;;;;;;6126008;22;92805;-68
2022/03/12 08:49:11;;;;;;;18.92;12.20;;;11.60;42.80;;;;;;6123843;23;94714;-69
2022/03/12 08:51:39;;;;;;;11.00;7.80;;;11.60;42.60;;;;;;6123152;23;94052;-68
2022/03/12 08:54:06;;;;;;;9.30;7.07;;;11.60;43.70;;;;;;6125584;22;92394;-68
2022/03/12 08:56:34;;;;;;;8.75;6.82;;;11.60;44.40;;;;;;6126423;22;91660;-68
2022/03/12 08:59:02;;;;;;;9.25;7.18;;;11.50;43.50;;;;;;6123462;23;93041;-68
2022/03/12 09:01:30;;;;;;;7.85;7.05;;;11.40;43.90;;;;;;6123275;23;103946;-68
2022/03/12 09:03:57;;;;;;;8.90;7.30;;;11.40;44.20;;;;;;6124105;23;94705;-69
2022/03/12 09:06:27;;;;;;;9.82;6.68;;;11.50;44.20;;;;;;6123860;23;92462;-68
2022/03/12 09:08:54;;;;;;;8.90;7.30;;;11.60;45.10;;;;;;6099112;23;95633;-69
2022/03/12 09:11:21;;;;;;;7.95;6.88;;;11.70;44.50;;;;;;6099202;23;96153;-71
2022/03/12 09:13:50;;;;;;;8.80;7.18;;;11.70;46.00;;;;;;6125854;22;92306;-71
2022/03/12 09:16:18;;;;;;;9.45;6.43;;;11.80;46.00;;;;;;6123997;23;92473;-71
2022/03/12 09:18:46;;;;;;;11.13;7.30;;;11.80;45.70;;;;;;6123789;23;95659;-71
2022/03/12 09:21:13;;;;;;;9.68;7.50;;;11.90;45.60;;;;;;6124048;23;95686;-70
2022/03/12 09:23:40;;;;;;;8.63;6.15;;;12.10;46.30;;;;;;6125874;22;92692;-71
2022/03/12 09:26:07;;;;;;;8.73;7.70;;;12.10;45.80;;;;;;6125375;23;92395;-71
2022/03/12 09:28:34;;;;;;;9.02;7.45;;;12.20;46.80;;;;;;6124188;22;94797;-71
2022/03/12 09:31:04;;;;;;;15.77;8.68;;;12.30;46.40;;;;;;6124939;22;95209;-71
2022/03/12 09:33:31;;;;;;;11.48;8.00;;;12.40;46.50;;;;;;6125117;22;100205;-71
2022/03/12 09:35:58;;;;;;;9.85;8.10;;;12.50;46.60;;;;;;6124199;23;92449;-71
2022/03/12 09:38:25;;;;;;;7.88;6.90;;;12.60;46.80;;;;;;6123873;23;93160;-71
2022/03/12 09:40:52;;;;;;;11.10;7.82;;;12.70;47.10;;;;;;6123723;23;95468;-71
2022/03/12 09:43:20;;;;;;;9.20;7.28;;;12.80;48.30;;;;;;6123123;23;92497;-71
2022/03/12 09:45:47;;;;;;;11.93;7.25;;;12.80;48.60;;;;;;6124694;23;91888;-71
2022/03/12 09:48:18;;;;;;;9.57;7.43;;;12.90;48.30;;;;;;6125287;23;96296;-71
2022/03/12 09:50:45;;;;;;;11.25;7.75;;;13.10;48.40;;;;;;6125447;22;92923;-71
2022/03/12 09:53:12;;;;;;;10.07;8.32;;;13.10;48.30;;;;;;6122636;23;95057;-71
2022/03/12 09:55:39;;;;;;;10.15;7.60;;;13.20;49.40;;;;;;6125652;22;92473;-71
2022/03/12 09:58:06;;;;;;;10.65;7.82;;;13.20;48.50;;;;;;6124822;23;93241;-71
2022/03/12 10:00:33;;;;;;;10.02;7.25;;;13.20;48.80;;;;;;6099217;23;95885;-71
2022/03/12 10:03:01;;;;;;;14.02;7.65;;;13.20;49.00;;;;;;6124278;23;92432;-71
2022/03/12 10:05:28;;;;;;;10.93;8.82;;;13.30;50.30;;;;;;6123919;23;92520;-71
2022/03/12 10:07:55;;;;;;;11.40;8.50;;;13.40;49.60;;;;;;6099050;23;95661;-71
2022/03/12 10:10:24;;;;;;;11.02;9.00;;;13.50;49.90;;;;;;6098974;23;95429;-71
2022/03/12 10:12:52;;;;;;;10.05;7.70;;;13.60;49.40;;;;;;6125550;22;92337;-69
2022/03/12 10:15:19;;;;;;;9.63;8.25;;;13.70;50.40;;;;;;6125218;22;92387;-68
2022/03/12 10:17:47;;;;;;;9.50;8.07;;;13.80;50.80;;;;;;6122243;23;95510;-69
2022/03/12 10:20:15;;;;;;;15.05;8.60;;;13.90;51.70;;;;;;6123049;23;97763;-69
2022/03/12 10:22:45;;;;;;;10.30;7.68;;;14.00;50.80;;;;;;6125644;22;92407;-69
2022/03/12 10:25:13;;;;;;;10.43;8.13;;;14.10;51.10;;;;;;6125269;22;92476;-69
2022/03/12 10:27:42;;;;;;;9.95;8.65;;;14.20;51.20;;;;;;6098869;23;95757;-69
2022/03/12 10:30:10;;;;;;;9.50;7.60;;;14.30;51.30;;;;;;6098241;23;95686;-69
2022/03/12 10:32:45;;;;;;;10.50;7.07;;;14.40;51.00;;;;;;6124110;23;92352;-69
2022/03/12 10:35:14;;;;;;;10.85;7.80;;;14.50;51.90;;;;;;6124119;23;91706;-69
2022/03/12 10:37:42;;;;;;;7.97;7.18;;;14.60;52.10;;;;;;6123299;23;96050;-69
2022/03/12 10:40:17;;;;;;;9.13;8.20;;;14.70;52.40;;;;;;6124943;22;93434;-69
2022/03/12 10:42:52;;;;;;;10.63;8.43;;;14.90;53.30;;;;;;6124055;22;94796;-69
2022/03/12 10:45:22;;;;;;;10.32;8.07;;;15.10;53.00;;;;;;6123174;23;92510;-69
2022/03/12 10:47:55;;;;;;;11.30;8.20;;;15.20;52.60;;;;;;6098188;23;96579;-69
2022/03/12 10:50:22;;;;;;;8.90;7.60;;;15.40;52.50;;;;;;6125079;23;93086;-68
2022/03/12 10:52:52;;;;;;;9.68;8.68;;;15.40;53.20;;;;;;6125438;23;92316;-69
2022/03/12 10:55:29;;;;;;;10.85;9.75;;;15.60;53.30;;;;;;6124868;23;92372;-69
2022/03/12 10:58:11;;;;;;;10.98;7.70;;;15.70;53.60;;;;;;6124194;23;93447;-69
2022/03/12 11:00:46;;;;;;;8.80;7.90;;;15.90;53.50;;;;;;6125623;22;92855;-69
2022/03/12 11:03:24;;;;;;;9.05;7.88;;;15.80;52.70;;;;;;6125188;22;92379;-69
2022/03/12 11:05:55;;;;;;;9.27;8.27;;;15.90;52.90;;;;;;6125304;22;92788;-69
2022/03/12 11:08:24;;;;;;;12.00;7.93;;;15.90;53.40;;;;;;6123391;22;95554;-69
2022/03/12 11:11:13;;;;;;;9.75;7.65;;;15.90;53.70;;;;;;6098893;23;95231;-72
2022/03/12 11:13:50;;;;;;;11.30;8.55;;;16.00;53.90;;;;;;6125364;22;92335;-71
2022/03/12 11:16:22;;;;;;;9.90;8.25;;;16.00;54.00;;;;;;6125134;22;92668;-72
2022/03/12 11:19:12;;;;;;;8.75;7.85;;;16.10;54.00;;;;;;6125102;22;93273;-69
2022/03/12 11:21:52;;;;;;;10.65;8.35;;;16.20;54.20;;;;;;6123525;23;92506;-69
2022/03/12 11:24:22;;;;;;;9.48;7.70;;;16.10;54.30;;;;;;6123355;23;92360;-69
2022/03/12 11:26:52;;;;;;;9.40;8.43;;;16.10;53.60;;;;;;6125467;22;91642;-69
2022/03/12 11:29:22;;;;;;;9.43;8.43;;;16.10;53.50;;;;;;6122522;23;95880;-69
2022/03/12 11:31:51;;;;;;;12.35;9.45;;;16.10;53.20;;;;;;6124781;22;92809;-72
2022/03/12 11:34:34;;;;;;;10.80;8.23;;;16.10;53.60;;;;;;6121513;23;94816;-72
2022/03/12 11:37:12;;;;;;;11.95;9.20;;;16.10;54.10;;;;;;6123572;23;92518;-71
2022/03/12 11:39:55;;;;;;;8.40;7.60;;;16.20;54.10;;;;;;6125026;23;93219;-72
2022/03/12 11:42:32;;;;;;;10.23;8.73;;;16.20;54.70;;;;;;6124777;22;92842;-71
2022/03/12 11:45:03;;;;;;;9.45;8.55;;;16.30;55.20;;;;;;6123558;23;92368;-69
2022/03/12 11:47:37;;;;;;;9.77;8.63;;;16.50;55.40;;;;;;6124695;22;92510;-69
2022/03/12 11:50:08;;;;;;;10.40;7.93;;;16.70;55.40;;;;;;6124609;22;93193;-69
2022/03/12 11:52:36;;;;;;;9.07;8.15;;;16.70;55.00;;;;;;6124865;23;93270;-69
2022/03/12 11:55:05;;;;;;;8.77;7.88;;;16.80;54.90;;;;;;6098260;23;92424;-69
2022/03/12 11:57:35;;;;;;;12.27;7.90;;;16.70;55.00;;;;;;6122676;23;92593;-69
2022/03/12 12:00:10;;;;;;;11.13;7.78;;;16.70;55.20;;;;;;6122835;22;95684;-69
2022/03/12 12:02:40;;;;;;;9.70;8.55;;;16.70;55.30;;;;;;6124230;23;94958;-69
2022/03/12 12:05:13;;;;;;;9.55;8.55;;;16.80;55.40;;;;;;6123101;23;92478;-72
2022/03/12 12:07:43;;;;;;;8.70;7.80;;;16.80;55.70;;;;;;6123947;23;92453;-71
2022/03/12 12:10:14;;;;;;;8.32;7.53;;;16.80;56.00;;;;;;6125904;23;92386;-72
2022/03/12 12:12:49;;;;;;;8.05;7.25;;;16.80;55.70;;;;;;6125639;22;92984;-69
2022/03/12 12:15:20;;;;;;;9.93;7.70;;;16.90;56.00;;;;;;6124351;23;92780;-69
2022/03/12 12:17:49;;;;;;;14.88;8.57;;;16.90;55.90;;;;;;6126368;23;91653;-69
2022/03/12 12:20:18;;;;;;;10.68;8.07;;;16.90;55.60;;;;;;6125425;22;103483;-69
2022/03/12 12:22:46;;;;;;;17.00;8.88;;;17.00;55.70;;;;;;6124250;23;93505;-72
2022/03/12 12:25:15;;;;;;;8.65;7.78;;;17.10;55.80;;;;;;6124767;22;94793;-69
2022/03/12 12:27:47;;;;;;;11.75;7.75;;;17.10;55.60;;;;;;6123964;23;92483;-69
2022/03/12 12:30:25;;;;;;;9.48;7.35;;;17.10;55.80;;;;;;6124125;23;95687;-69
2022/03/12 12:32:52;;;;;;;7.70;6.88;;;17.10;55.90;;;;;;6124335;23;93944;-69
2022/03/12 12:35:21;;;;;;;8.60;7.07;;;17.10;55.70;;;;;;6124457;23;92315;-69
2022/03/12 12:37:59;;;;;;;8.77;7.88;;;17.20;55.40;;;;;;6123923;23;92470;-69
2022/03/12 12:40:53;;;;;;;9.60;7.63;;;17.40;55.10;;;;;;6124145;23;93104;-69
2022/03/12 12:43:32;;;;;;;9.80;8.30;;;17.30;54.40;;;;;;6124597;23;95396;-69
2022/03/12 12:46:05;;;;;;;9.40;8.40;;;17.30;55.10;;;;;;6125998;22;92308;-69
2022/03/12 12:48:48;;;;;;;9.93;8.57;;;17.40;54.50;;;;;;6125594;23;92385;-69
2022/03/12 12:51:16;;;;;;;12.13;8.93;;;17.40;54.50;;;;;;6124094;22;95561;-69
2022/03/12 12:53:55;;;;;;;10.85;9.10;;;17.40;54.70;;;;;;6125181;23;95509;-69
2022/03/12 12:56:30;;;;;;;11.30;8.48;;;17.50;54.30;;;;;;6149142;22;92437;-69
2022/03/12 12:58:58;;;;;;;9.45;7.93;;;17.50;54.40;;;;;;6125306;23;92418;-69
2022/03/12 13:01:35;;;;;;;9.23;7.95;;;17.50;54.30;;;;;;6123861;23;95999;-69
2022/03/12 13:04:06;;;;;;;10.73;8.90;;;17.60;54.40;;;;;;6125525;22;94207;-69